createdAt,value
2018-11-29T00:00:14.124Z,10.50
2018-11-29T00:05:18.975Z,10.50
2018-11-29T00:10:39.529Z,10.50
2018-11-29T00:15:45.882Z,10.50
2018-11-29T00:20:50.728Z,10.60
2018-11-29T00:25:56.089Z,10.60
2018-11-29T00:31:00.812Z,10.60
2018-11-29T00:36:08.277Z,10.60
2018-11-29T00:41:13.242Z,10.60
2018-11-29T00:46:18.154Z,10.60
2018-11-29T00:51:23.273Z,10.60
2018-11-29T00:56:28.110Z,10.60
2018-11-29T01:01:32.910Z,10.60
2018-11-29T01:06:37.647Z,10.60
2018-11-29T01:11:42.412Z,10.60
2018-11-29T01:16:47.235Z,10.70
2018-11-29T01:21:52.005Z,10.70
2018-11-29T01:26:57.112Z,10.70
2018-11-29T01:32:01.955Z,10.70
2018-11-29T01:37:06.736Z,10.70
2018-11-29T01:42:11.788Z,10.70
2018-11-29T01:47:16.609Z,10.70
2018-11-29T01:52:21.434Z,10.70
2018-11-29T01:57:26.280Z,10.70
2018-11-29T02:02:31.589Z,10.70
2018-11-29T02:07:36.913Z,10.70
2018-11-29T02:12:41.596Z,10.60
2018-11-29T02:17:46.734Z,10.60
2018-11-29T02:22:51.525Z,10.60
2018-11-29T02:27:56.417Z,10.60
2018-11-29T02:33:02.169Z,10.60
2018-11-29T02:38:06.904Z,10.60
2018-11-29T02:43:11.675Z,10.50
2018-11-29T02:48:16.582Z,10.50
2018-11-29T02:53:21.329Z,10.50
2018-11-29T02:58:26.191Z,10.50
2018-11-29T03:03:30.927Z,10.50
2018-11-29T03:08:35.727Z,10.50
2018-11-29T03:13:40.567Z,10.50
2018-11-29T03:18:45.381Z,10.50
2018-11-29T03:23:50.163Z,10.50
2018-11-29T03:28:54.980Z,10.50
2018-11-29T03:33:59.825Z,10.50
2018-11-29T03:39:06.043Z,10.50
2018-11-29T03:44:10.794Z,10.50
2018-11-29T03:49:16.116Z,10.50
2018-11-29T03:54:20.978Z,10.50
2018-11-29T03:59:25.720Z,10.50
2018-11-29T04:04:30.567Z,10.50
2018-11-29T04:09:35.353Z,10.50
2018-11-29T04:14:40.112Z,10.50
2018-11-29T04:19:44.910Z,10.60
2018-11-29T04:24:49.668Z,10.60
2018-11-29T04:29:54.602Z,10.60
2018-11-29T04:34:59.585Z,10.60
2018-11-29T04:40:06.196Z,10.60
2018-11-29T04:45:16.143Z,10.70
2018-11-29T04:50:20.986Z,10.70
2018-11-29T04:55:25.716Z,10.70
2018-11-29T05:00:30.756Z,10.70
2018-11-29T05:05:35.513Z,10.70
2018-11-29T05:10:40.492Z,10.70
2018-11-29T05:15:45.652Z,10.70
2018-11-29T05:20:50.584Z,10.80
2018-11-29T05:25:55.542Z,10.80
2018-11-29T05:31:00.348Z,10.80
2018-11-29T05:36:05.417Z,10.70
2018-11-29T05:41:10.102Z,10.70
2018-11-29T05:46:15.030Z,10.70
2018-11-29T05:51:20.386Z,10.70
2018-11-29T05:56:25.225Z,10.70
2018-11-29T06:01:39.346Z,10.70
2018-11-29T06:06:44.033Z,10.70
2018-11-29T06:11:48.696Z,10.70
2018-11-29T06:16:53.381Z,10.80
2018-11-29T06:21:58.145Z,10.70
2018-11-29T06:27:02.936Z,10.80
2018-11-29T06:32:07.755Z,10.70
2018-11-29T06:37:12.529Z,10.70
2018-11-29T06:42:17.511Z,10.70
2018-11-29T06:47:22.231Z,10.70
2018-11-29T06:52:27.010Z,10.60
2018-11-29T06:57:31.967Z,10.60
2018-11-29T07:02:36.680Z,10.60
2018-11-29T07:07:41.394Z,10.70
2018-11-29T07:12:46.105Z,10.70
2018-11-29T07:17:50.989Z,10.80
2018-11-29T07:22:55.860Z,10.80
2018-11-29T07:28:00.822Z,10.80
2018-11-29T07:33:05.914Z,10.80
2018-11-29T07:38:10.776Z,10.80
2018-11-29T07:43:15.514Z,10.80
2018-11-29T07:48:20.216Z,10.80
2018-11-29T07:53:25.047Z,10.90
2018-11-29T07:58:36.090Z,10.90
2018-11-29T08:03:40.883Z,10.90
2018-11-29T08:08:47.070Z,10.90
2018-11-29T08:13:51.869Z,11.00
2018-11-29T08:18:56.740Z,10.90
2018-11-29T08:24:01.542Z,10.90
2018-11-29T08:29:06.284Z,10.90
2018-11-29T08:34:11.353Z,10.80
2018-11-29T08:39:16.379Z,10.80
2018-11-29T08:44:21.139Z,10.80
2018-11-29T08:49:26.251Z,10.80
2018-11-29T08:54:31.120Z,10.80
2018-11-29T08:59:35.887Z,10.80
2018-11-29T09:04:40.583Z,10.90
2018-11-29T09:09:45.326Z,10.90
2018-11-29T09:14:50.281Z,10.90
2018-11-29T09:19:55.118Z,11.00
2018-11-29T09:24:59.962Z,10.90
2018-11-29T09:30:09.268Z,10.90
2018-11-29T09:35:14.128Z,10.90
2018-11-29T09:40:19.141Z,10.90
2018-11-29T09:45:24.285Z,10.90
2018-11-29T09:50:29.473Z,10.90
2018-11-29T09:55:34.185Z,10.90
2018-11-29T10:00:38.990Z,10.80
2018-11-29T10:05:45.321Z,10.80
2018-11-29T10:10:50.107Z,10.80
2018-11-29T10:15:54.930Z,10.70
2018-11-29T10:21:00.161Z,10.70
2018-11-29T10:26:04.882Z,10.70
2018-11-29T10:31:09.712Z,10.70
2018-11-29T10:36:14.706Z,10.60
2018-11-29T10:41:19.482Z,10.60
2018-11-29T10:46:24.225Z,10.50
2018-11-29T10:51:29.237Z,10.50
2018-11-29T10:56:34.295Z,10.50
2018-11-29T11:01:45.338Z,10.50
2018-11-29T11:06:50.578Z,10.50
2018-11-29T11:11:55.482Z,10.50
2018-11-29T11:17:00.569Z,10.50
2018-11-29T11:22:05.866Z,10.60
2018-11-29T11:27:10.981Z,10.50
2018-11-29T11:32:15.798Z,10.60
2018-11-29T11:37:20.699Z,10.60
2018-11-29T11:42:25.412Z,10.60
2018-11-29T11:47:31.174Z,10.60
2018-11-29T11:52:34.969Z,10.60
2018-11-29T11:57:39.807Z,10.60
2018-11-29T12:02:44.923Z,10.60
2018-11-29T12:07:49.565Z,10.70
2018-11-29T12:12:54.734Z,10.70
2018-11-29T12:17:59.828Z,10.80
2018-11-29T12:23:04.640Z,10.80
2018-11-29T12:28:09.593Z,10.80
2018-11-29T12:33:15.178Z,10.90
2018-11-29T12:38:20.028Z,11.00
2018-11-29T12:43:24.866Z,10.90
2018-11-29T12:48:29.760Z,11.00
2018-11-29T12:53:34.530Z,11.10
2018-11-29T12:58:39.363Z,11.10
2018-11-29T13:03:44.304Z,11.10
2018-11-29T13:08:49.122Z,11.10
2018-11-29T13:13:53.901Z,11.20
2018-11-29T13:18:58.657Z,11.20
2018-11-29T13:24:03.530Z,11.30
2018-11-29T13:29:08.114Z,11.40
2018-11-29T13:34:12.870Z,11.40
2018-11-29T13:39:17.729Z,11.40
2018-11-29T13:44:22.468Z,11.50
2018-11-29T13:49:27.163Z,11.50
2018-11-29T13:54:32.072Z,11.50
2018-11-29T13:59:36.893Z,11.50
2018-11-29T14:04:41.620Z,11.50
2018-11-29T14:09:46.419Z,11.50
2018-11-29T14:14:52.055Z,11.50
2018-11-29T14:19:57.901Z,11.50
2018-11-29T14:25:01.576Z,11.40
2018-11-29T14:30:37.448Z,11.40
2018-11-29T14:35:43.280Z,11.50
2018-11-29T14:40:48.112Z,11.50
2018-11-29T14:45:53.143Z,11.50
2018-11-29T14:51:02.402Z,11.60
2018-11-29T14:56:02.765Z,11.60
2018-11-29T15:01:07.537Z,11.60
2018-11-29T15:06:12.586Z,11.70
2018-11-29T15:11:19.221Z,11.60
2018-11-29T15:16:23.962Z,11.60
2018-11-29T15:21:28.852Z,11.70
2018-11-29T15:26:33.490Z,11.70
2018-11-29T15:31:38.328Z,11.60
2018-11-29T15:36:43.230Z,11.70
2018-11-29T15:41:47.997Z,11.70
2018-11-29T15:46:52.785Z,11.70
2018-11-29T15:51:57.644Z,11.70
2018-11-29T15:57:02.344Z,11.70
2018-11-29T16:02:07.150Z,11.70
2018-11-29T16:07:11.996Z,11.80
2018-11-29T16:12:16.882Z,11.80
2018-11-29T16:17:21.608Z,11.80
2018-11-29T16:22:26.628Z,11.80
2018-11-29T16:27:31.480Z,11.80
2018-11-29T16:32:36.232Z,11.80
2018-11-29T16:37:41.029Z,11.90
2018-11-29T16:42:45.725Z,11.90
2018-11-29T16:47:50.496Z,11.90
2018-11-29T16:52:55.689Z,12.00
2018-11-29T16:58:02.297Z,12.00
2018-11-29T17:03:07.099Z,12.00
2018-11-29T17:08:11.864Z,12.10
2018-11-29T17:13:17.986Z,12.00
2018-11-29T17:18:23.195Z,12.10
2018-11-29T17:23:28.019Z,12.10
2018-11-29T17:28:32.800Z,12.10
2018-11-29T17:33:37.504Z,12.10
2018-11-29T17:38:42.426Z,12.10
2018-11-29T17:43:47.734Z,12.10
2018-11-29T17:48:54.000Z,12.10
2018-11-29T17:53:59.205Z,12.00
2018-11-29T17:59:03.920Z,12.10
2018-11-29T18:04:08.664Z,12.00
2018-11-29T18:09:13.397Z,12.00
2018-11-29T18:14:18.233Z,12.10
2018-11-29T18:19:22.953Z,12.10
2018-11-29T18:24:27.728Z,12.00
2018-11-29T18:29:32.504Z,12.00
2018-11-29T18:34:37.205Z,12.00
2018-11-29T18:39:41.955Z,11.90
2018-11-29T18:44:46.658Z,11.90
2018-11-29T18:49:51.339Z,11.90
2018-11-29T18:54:56.206Z,11.80
2018-11-29T19:00:02.632Z,11.80
2018-11-29T19:05:08.219Z,11.80
2018-11-29T19:10:15.445Z,11.70
2018-11-29T19:15:20.202Z,11.70
2018-11-29T19:20:24.948Z,11.70
2018-11-29T19:25:29.711Z,11.60
2018-11-29T19:30:34.855Z,11.60
2018-11-29T19:35:39.671Z,11.60
2018-11-29T19:40:44.418Z,11.60
2018-11-29T19:45:49.158Z,11.60
2018-11-29T19:50:53.995Z,11.60
2018-11-29T19:56:00.615Z,11.60
2018-11-29T20:01:05.791Z,11.60
2018-11-29T20:06:10.629Z,11.60
2018-11-29T20:11:15.422Z,11.60
2018-11-29T20:16:20.170Z,11.60
2018-11-29T20:21:24.963Z,11.60
2018-11-29T20:26:29.906Z,11.60
2018-11-29T20:31:34.855Z,11.60
2018-11-29T20:36:39.630Z,11.60
2018-11-29T20:41:44.320Z,11.60
2018-11-29T20:46:49.140Z,11.70
2018-11-29T20:51:53.894Z,11.80
2018-11-29T20:56:58.780Z,11.80
2018-11-29T21:02:03.586Z,11.80
2018-11-29T21:07:08.324Z,11.80
2018-11-29T21:12:13.078Z,11.90
2018-11-29T21:17:17.873Z,11.80
2018-11-29T21:22:22.654Z,11.80
2018-11-29T21:27:27.368Z,11.80
2018-11-29T21:32:32.253Z,11.70
2018-11-29T21:37:37.006Z,11.70
2018-11-29T21:42:42.065Z,11.70
2018-11-29T21:47:46.977Z,11.70
2018-11-29T21:52:51.802Z,11.70
2018-11-29T21:57:56.678Z,11.60
2018-11-29T22:03:01.656Z,11.60
2018-11-29T22:08:06.490Z,11.60
2018-11-29T22:13:11.183Z,11.60
2018-11-29T22:18:18.938Z,11.60
2018-11-29T22:23:23.715Z,11.50
2018-11-29T22:28:29.004Z,11.50
2018-11-29T22:33:33.835Z,11.50
2018-11-29T22:38:38.620Z,11.40
2018-11-29T22:43:43.379Z,11.40
2018-11-29T22:48:48.243Z,11.40
2018-11-29T22:53:53.085Z,11.40
2018-11-29T22:58:58.051Z,11.40
2018-11-29T23:04:02.748Z,11.50
2018-11-29T23:09:09.228Z,11.50
2018-11-29T23:14:14.089Z,11.50
2018-11-29T23:19:18.921Z,11.40
2018-11-29T23:24:23.660Z,11.50
2018-11-29T23:29:28.533Z,11.50
2018-11-29T23:34:33.274Z,11.50
2018-11-29T23:39:38.092Z,11.50
2018-11-29T23:44:42.904Z,11.50
2018-11-29T23:49:47.603Z,11.50
2018-11-29T23:54:52.431Z,11.50
2018-11-29T23:59:57.326Z,11.50
